sensor_id;sensor_type;location;lat;lon;timestamp;P1;durP1;ratioP1;P2;durP2;ratioP2
47153;SDS011;32907;41.412;2.164;2024-01-25T00:02:05;17.65;;;14.60;;
47153;SDS011;32907;41.412;2.164;2024-01-25T00:04:33;19.13;;;14.77;;
47153;SDS011;32907;41.412;2.164;2024-01-25T00:07:01;19.63;;;14.80;;
47153;SDS011;32907;41.412;2.164;2024-01-25T00:09:30;18.42;;;14.18;;
47153;SDS011;32907;41.412;2.164;2024-01-25T00:11:58;17.55;;;14.85;;
47153;SDS011;32907;41.412;2.164;2024-01-25T00:14:26;18.30;;;14.57;;
47153;SDS011;32907;41.412;2.164;2024-01-25T00:16:54;19.30;;;14.85;;
47153;SDS011;32907;41.412;2.164;2024-01-25T00:19:22;20.98;;;14.70;;
47153;SDS011;32907;41.412;2.164;2024-01-25T00:21:51;20.67;;;14.05;;
47153;SDS011;32907;41.412;2.164;2024-01-25T00:24:19;16.33;;;14.13;;
47153;SDS011;32907;41.412;2.164;2024-01-25T00:26:47;17.08;;;14.05;;
47153;SDS011;32907;41.412;2.164;2024-01-25T00:29:16;17.67;;;13.27;;
47153;SDS011;32907;41.412;2.164;2024-01-25T00:31:44;19.17;;;13.68;;
47153;SDS011;32907;41.412;2.164;2024-01-25T00:34:12;16.17;;;13.18;;
47153;SDS011;32907;41.412;2.164;2024-01-25T00:36:41;16.60;;;12.40;;
47153;SDS011;32907;41.412;2.164;2024-01-25T00:39:10;15.80;;;11.43;;
47153;SDS011;32907;41.412;2.164;2024-01-25T00:41:38;13.23;;;10.50;;
47153;SDS011;32907;41.412;2.164;2024-01-25T00:44:08;11.07;;;9.13;;
47153;SDS011;32907;41.412;2.164;2024-01-25T00:46:36;11.40;;;8.82;;
47153;SDS011;32907;41.412;2.164;2024-01-25T00:49:05;10.20;;;8.43;;
47153;SDS011;32907;41.412;2.164;2024-01-25T00:51:33;10.60;;;8.27;;
47153;SDS011;32907;41.412;2.164;2024-01-25T00:54:02;10.95;;;8.90;;
47153;SDS011;32907;41.412;2.164;2024-01-25T00:56:30;11.75;;;9.25;;
47153;SDS011;32907;41.412;2.164;2024-01-25T00:58:59;11.95;;;10.25;;
47153;SDS011;32907;41.412;2.164;2024-01-25T01:01:27;15.43;;;11.75;;
47153;SDS011;32907;41.412;2.164;2024-01-25T01:03:56;14.68;;;10.82;;
47153;SDS011;32907;41.412;2.164;2024-01-25T01:06:26;15.75;;;12.02;;
47153;SDS011;32907;41.412;2.164;2024-01-25T01:08:55;15.75;;;12.13;;
47153;SDS011;32907;41.412;2.164;2024-01-25T01:11:24;15.77;;;12.30;;
47153;SDS011;32907;41.412;2.164;2024-01-25T01:13:52;14.80;;;11.35;;
47153;SDS011;32907;41.412;2.164;2024-01-25T01:16:20;17.23;;;12.32;;
47153;SDS011;32907;41.412;2.164;2024-01-25T01:18:49;15.93;;;11.95;;
47153;SDS011;32907;41.412;2.164;2024-01-25T01:21:17;15.80;;;12.80;;
47153;SDS011;32907;41.412;2.164;2024-01-25T01:23:45;15.93;;;13.43;;
47153;SDS011;32907;41.412;2.164;2024-01-25T01:26:13;16.25;;;13.13;;
47153;SDS011;32907;41.412;2.164;2024-01-25T01:28:42;15.80;;;12.55;;
47153;SDS011;32907;41.412;2.164;2024-01-25T01:31:10;16.35;;;12.30;;
47153;SDS011;32907;41.412;2.164;2024-01-25T01:33:38;14.18;;;11.77;;
47153;SDS011;32907;41.412;2.164;2024-01-25T01:36:06;18.27;;;12.85;;
47153;SDS011;32907;41.412;2.164;2024-01-25T01:38:35;15.50;;;12.45;;
47153;SDS011;32907;41.412;2.164;2024-01-25T01:41:03;14.73;;;12.65;;
47153;SDS011;32907;41.412;2.164;2024-01-25T01:43:31;19.05;;;12.95;;
47153;SDS011;32907;41.412;2.164;2024-01-25T01:46:00;17.48;;;13.65;;
47153;SDS011;32907;41.412;2.164;2024-01-25T01:48:34;18.20;;;13.43;;
47153;SDS011;32907;41.412;2.164;2024-01-25T01:51:03;14.52;;;12.63;;
47153;SDS011;32907;41.412;2.164;2024-01-25T01:53:32;19.27;;;13.75;;
47153;SDS011;32907;41.412;2.164;2024-01-25T01:56:01;16.13;;;12.50;;
47153;SDS011;32907;41.412;2.164;2024-01-25T01:58:30;16.33;;;13.18;;
47153;SDS011;32907;41.412;2.164;2024-01-25T02:00:59;16.15;;;12.50;;
47153;SDS011;32907;41.412;2.164;2024-01-25T02:03:29;14.32;;;11.40;;
47153;SDS011;32907;41.412;2.164;2024-01-25T02:05:57;13.93;;;10.50;;
47153;SDS011;32907;41.412;2.164;2024-01-25T02:08:30;16.33;;;11.18;;
47153;SDS011;32907;41.412;2.164;2024-01-25T02:10:59;14.30;;;11.40;;
47153;SDS011;32907;41.412;2.164;2024-01-25T02:13:28;15.10;;;10.38;;
47153;SDS011;32907;41.412;2.164;2024-01-25T02:15:56;13.15;;;9.98;;
47153;SDS011;32907;41.412;2.164;2024-01-25T02:18:24;14.50;;;10.05;;
47153;SDS011;32907;41.412;2.164;2024-01-25T02:20:52;13.60;;;9.75;;
47153;SDS011;32907;41.412;2.164;2024-01-25T02:23:22;14.40;;;10.00;;
47153;SDS011;32907;41.412;2.164;2024-01-25T02:25:50;12.20;;;8.80;;
47153;SDS011;32907;41.412;2.164;2024-01-25T02:28:18;10.60;;;8.73;;
47153;SDS011;32907;41.412;2.164;2024-01-25T02:30:46;11.82;;;8.70;;
47153;SDS011;32907;41.412;2.164;2024-01-25T02:33:14;10.57;;;8.13;;
47153;SDS011;32907;41.412;2.164;2024-01-25T02:35:42;13.70;;;8.88;;
47153;SDS011;32907;41.412;2.164;2024-01-25T02:38:11;11.43;;;8.20;;
47153;SDS011;32907;41.412;2.164;2024-01-25T02:40:42;11.10;;;8.23;;
47153;SDS011;32907;41.412;2.164;2024-01-25T02:43:10;10.98;;;8.27;;
47153;SDS011;32907;41.412;2.164;2024-01-25T02:45:38;12.30;;;9.40;;
47153;SDS011;32907;41.412;2.164;2024-01-25T02:48:06;11.20;;;8.25;;
47153;SDS011;32907;41.412;2.164;2024-01-25T02:50:35;11.10;;;8.70;;
47153;SDS011;32907;41.412;2.164;2024-01-25T02:53:03;9.85;;;7.97;;
47153;SDS011;32907;41.412;2.164;2024-01-25T02:55:32;8.88;;;7.32;;
47153;SDS011;32907;41.412;2.164;2024-01-25T02:58:00;10.43;;;8.07;;
47153;SDS011;32907;41.412;2.164;2024-01-25T03:00:29;12.13;;;8.02;;
47153;SDS011;32907;41.412;2.164;2024-01-25T03:02:58;10.05;;;7.63;;
47153;SDS011;32907;41.412;2.164;2024-01-25T03:05:26;9.60;;;7.53;;
47153;SDS011;32907;41.412;2.164;2024-01-25T03:07:55;11.23;;;8.45;;
47153;SDS011;32907;41.412;2.164;2024-01-25T03:10:24;9.10;;;6.90;;
47153;SDS011;32907;41.412;2.164;2024-01-25T03:12:52;9.73;;;7.47;;
47153;SDS011;32907;41.412;2.164;2024-01-25T03:15:20;8.05;;;6.70;;
47153;SDS011;32907;41.412;2.164;2024-01-25T03:17:49;8.95;;;7.55;;
47153;SDS011;32907;41.412;2.164;2024-01-25T03:20:17;8.77;;;6.88;;
47153;SDS011;32907;41.412;2.164;2024-01-25T03:22:45;8.40;;;6.97;;
47153;SDS011;32907;41.412;2.164;2024-01-25T03:25:14;8.77;;;7.35;;
47153;SDS011;32907;41.412;2.164;2024-01-25T03:27:42;11.13;;;7.95;;
47153;SDS011;32907;41.412;2.164;2024-01-25T03:30:10;8.65;;;7.70;;
47153;SDS011;32907;41.412;2.164;2024-01-25T03:32:39;10.48;;;8.57;;
47153;SDS011;32907;41.412;2.164;2024-01-25T03:35:07;11.40;;;8.48;;
47153;SDS011;32907;41.412;2.164;2024-01-25T03:37:36;9.60;;;8.07;;
47153;SDS011;32907;41.412;2.164;2024-01-25T03:40:05;11.00;;;8.18;;
47153;SDS011;32907;41.412;2.164;2024-01-25T03:42:33;10.52;;;8.57;;
47153;SDS011;32907;41.412;2.164;2024-01-25T03:45:01;11.63;;;9.57;;
47153;SDS011;32907;41.412;2.164;2024-01-25T03:47:31;10.93;;;9.27;;
47153;SDS011;32907;41.412;2.164;2024-01-25T03:49:59;10.68;;;8.73;;
47153;SDS011;32907;41.412;2.164;2024-01-25T03:52:28;12.13;;;9.68;;
47153;SDS011;32907;41.412;2.164;2024-01-25T03:54:58;11.98;;;9.35;;
47153;SDS011;32907;41.412;2.164;2024-01-25T03:57:26;12.15;;;10.20;;
47153;SDS011;32907;41.412;2.164;2024-01-25T03:59:54;12.63;;;10.38;;
47153;SDS011;32907;41.412;2.164;2024-01-25T04:02:22;10.18;;;9.07;;
47153;SDS011;32907;41.412;2.164;2024-01-25T04:04:50;13.82;;;10.02;;
47153;SDS011;32907;41.412;2.164;2024-01-25T04:07:19;11.27;;;9.02;;
47153;SDS011;32907;41.412;2.164;2024-01-25T04:09:47;12.23;;;8.75;;
47153;SDS011;32907;41.412;2.164;2024-01-25T04:12:15;11.00;;;8.63;;
47153;SDS011;32907;41.412;2.164;2024-01-25T04:14:43;11.02;;;8.45;;
47153;SDS011;32907;41.412;2.164;2024-01-25T04:17:11;10.45;;;8.85;;
47153;SDS011;32907;41.412;2.164;2024-01-25T04:19:39;10.68;;;8.52;;
47153;SDS011;32907;41.412;2.164;2024-01-25T04:22:07;11.27;;;8.15;;
47153;SDS011;32907;41.412;2.164;2024-01-25T04:24:35;10.35;;;8.95;;
47153;SDS011;32907;41.412;2.164;2024-01-25T04:27:04;10.38;;;8.07;;
47153;SDS011;32907;41.412;2.164;2024-01-25T04:29:32;10.73;;;8.35;;
47153;SDS011;32907;41.412;2.164;2024-01-25T04:32:00;11.80;;;8.82;;
47153;SDS011;32907;41.412;2.164;2024-01-25T04:34:29;11.40;;;8.35;;
47153;SDS011;32907;41.412;2.164;2024-01-25T04:36:57;9.20;;;8.07;;
47153;SDS011;32907;41.412;2.164;2024-01-25T04:39:25;9.88;;;7.55;;
47153;SDS011;32907;41.412;2.164;2024-01-25T04:41:54;10.10;;;7.90;;
47153;SDS011;32907;41.412;2.164;2024-01-25T04:44:22;10.18;;;7.68;;
47153;SDS011;32907;41.412;2.164;2024-01-25T04:46:50;9.85;;;8.45;;
47153;SDS011;32907;41.412;2.164;2024-01-25T04:49:19;12.50;;;10.10;;
47153;SDS011;32907;41.412;2.164;2024-01-25T04:51:50;15.25;;;11.55;;
47153;SDS011;32907;41.412;2.164;2024-01-25T04:54:19;15.90;;;13.38;;
47153;SDS011;32907;41.412;2.164;2024-01-25T04:56:47;17.23;;;13.13;;
47153;SDS011;32907;41.412;2.164;2024-01-25T04:59:15;14.88;;;11.65;;
47153;SDS011;32907;41.412;2.164;2024-01-25T05:01:43;13.55;;;11.73;;
47153;SDS011;32907;41.412;2.164;2024-01-25T05:04:12;12.23;;;10.00;;
47153;SDS011;32907;41.412;2.164;2024-01-25T05:06:40;13.90;;;10.40;;
47153;SDS011;32907;41.412;2.164;2024-01-25T05:09:09;13.63;;;10.05;;
47153;SDS011;32907;41.412;2.164;2024-01-25T05:11:38;12.43;;;10.00;;
47153;SDS011;32907;41.412;2.164;2024-01-25T05:14:07;10.35;;;9.02;;
47153;SDS011;32907;41.412;2.164;2024-01-25T05:16:35;10.85;;;9.15;;
47153;SDS011;32907;41.412;2.164;2024-01-25T05:19:04;12.05;;;10.00;;
47153;SDS011;32907;41.412;2.164;2024-01-25T05:21:32;12.05;;;9.00;;
47153;SDS011;32907;41.412;2.164;2024-01-25T05:24:00;11.80;;;9.45;;
47153;SDS011;32907;41.412;2.164;2024-01-25T05:26:29;13.35;;;10.13;;
47153;SDS011;32907;41.412;2.164;2024-01-25T05:28:57;12.48;;;9.80;;
47153;SDS011;32907;41.412;2.164;2024-01-25T05:31:26;14.25;;;9.98;;
47153;SDS011;32907;41.412;2.164;2024-01-25T05:33:54;12.25;;;10.38;;
47153;SDS011;32907;41.412;2.164;2024-01-25T05:36:23;11.80;;;9.95;;
47153;SDS011;32907;41.412;2.164;2024-01-25T05:38:51;11.48;;;9.68;;
47153;SDS011;32907;41.412;2.164;2024-01-25T05:41:19;14.57;;;10.30;;
47153;SDS011;32907;41.412;2.164;2024-01-25T05:43:47;11.98;;;9.70;;
47153;SDS011;32907;41.412;2.164;2024-01-25T05:46:15;12.23;;;10.20;;
47153;SDS011;32907;41.412;2.164;2024-01-25T05:48:43;12.50;;;10.00;;
47153;SDS011;32907;41.412;2.164;2024-01-25T05:51:12;14.73;;;10.52;;
47153;SDS011;32907;41.412;2.164;2024-01-25T05:53:41;15.77;;;12.93;;
47153;SDS011;32907;41.412;2.164;2024-01-25T05:56:09;16.00;;;13.75;;
47153;SDS011;32907;41.412;2.164;2024-01-25T05:58:37;16.23;;;14.13;;
47153;SDS011;32907;41.412;2.164;2024-01-25T06:01:06;14.77;;;11.13;;
47153;SDS011;32907;41.412;2.164;2024-01-25T06:03:35;12.93;;;11.27;;
47153;SDS011;32907;41.412;2.164;2024-01-25T06:06:04;15.32;;;12.65;;
47153;SDS011;32907;41.412;2.164;2024-01-25T06:08:36;14.90;;;12.30;;
47153;SDS011;32907;41.412;2.164;2024-01-25T06:11:04;16.00;;;13.13;;
47153;SDS011;32907;41.412;2.164;2024-01-25T06:13:33;14.95;;;13.10;;
47153;SDS011;32907;41.412;2.164;2024-01-25T06:16:01;15.30;;;12.65;;
47153;SDS011;32907;41.412;2.164;2024-01-25T06:18:29;14.70;;;12.13;;
47153;SDS011;32907;41.412;2.164;2024-01-25T06:20:57;15.45;;;11.60;;
47153;SDS011;32907;41.412;2.164;2024-01-25T06:23:25;12.73;;;10.80;;
47153;SDS011;32907;41.412;2.164;2024-01-25T06:25:54;11.40;;;9.45;;
47153;SDS011;32907;41.412;2.164;2024-01-25T06:28:23;12.40;;;10.10;;
47153;SDS011;32907;41.412;2.164;2024-01-25T06:30:52;11.60;;;9.10;;
47153;SDS011;32907;41.412;2.164;2024-01-25T06:33:20;13.75;;;9.88;;
47153;SDS011;32907;41.412;2.164;2024-01-25T06:35:49;12.82;;;9.65;;
47153;SDS011;32907;41.412;2.164;2024-01-25T06:38:18;13.00;;;9.68;;
47153;SDS011;32907;41.412;2.164;2024-01-25T06:40:46;16.23;;;10.23;;
47153;SDS011;32907;41.412;2.164;2024-01-25T06:43:14;16.58;;;12.07;;
47153;SDS011;32907;41.412;2.164;2024-01-25T06:45:43;17.10;;;12.90;;
47153;SDS011;32907;41.412;2.164;2024-01-25T06:48:12;16.02;;;12.88;;
47153;SDS011;32907;41.412;2.164;2024-01-25T06:50:40;16.23;;;12.07;;
47153;SDS011;32907;41.412;2.164;2024-01-25T06:53:08;14.98;;;10.38;;
47153;SDS011;32907;41.412;2.164;2024-01-25T06:55:37;14.00;;;10.40;;
47153;SDS011;32907;41.412;2.164;2024-01-25T06:58:05;12.18;;;9.48;;
47153;SDS011;32907;41.412;2.164;2024-01-25T07:00:33;12.27;;;9.35;;
47153;SDS011;32907;41.412;2.164;2024-01-25T07:03:02;10.45;;;8.95;;
47153;SDS011;32907;41.412;2.164;2024-01-25T07:05:31;12.70;;;9.63;;
47153;SDS011;32907;41.412;2.164;2024-01-25T07:08:01;10.35;;;8.52;;
47153;SDS011;32907;41.412;2.164;2024-01-25T07:10:30;11.80;;;9.07;;
47153;SDS011;32907;41.412;2.164;2024-01-25T07:12:59;10.23;;;9.02;;
47153;SDS011;32907;41.412;2.164;2024-01-25T07:15:28;10.50;;;8.15;;
47153;SDS011;32907;41.412;2.164;2024-01-25T07:17:56;10.85;;;9.00;;
47153;SDS011;32907;41.412;2.164;2024-01-25T07:20:24;10.20;;;8.90;;
47153;SDS011;32907;41.412;2.164;2024-01-25T07:22:53;13.30;;;9.07;;
47153;SDS011;32907;41.412;2.164;2024-01-25T07:25:21;10.77;;;8.98;;
47153;SDS011;32907;41.412;2.164;2024-01-25T07:27:50;16.33;;;11.52;;
47153;SDS011;32907;41.412;2.164;2024-01-25T07:30:18;15.10;;;11.50;;
47153;SDS011;32907;41.412;2.164;2024-01-25T07:32:47;16.45;;;10.88;;
47153;SDS011;32907;41.412;2.164;2024-01-25T07:35:18;12.85;;;10.38;;
47153;SDS011;32907;41.412;2.164;2024-01-25T07:37:46;13.82;;;10.65;;
47153;SDS011;32907;41.412;2.164;2024-01-25T07:40:14;12.68;;;9.88;;
47153;SDS011;32907;41.412;2.164;2024-01-25T07:42:44;11.63;;;9.60;;
47153;SDS011;32907;41.412;2.164;2024-01-25T07:45:14;11.77;;;9.15;;
47153;SDS011;32907;41.412;2.164;2024-01-25T07:47:43;14.07;;;9.70;;
47153;SDS011;32907;41.412;2.164;2024-01-25T07:50:12;13.80;;;9.20;;
47153;SDS011;32907;41.412;2.164;2024-01-25T07:52:40;12.65;;;9.55;;
47153;SDS011;32907;41.412;2.164;2024-01-25T07:55:08;11.57;;;9.20;;
47153;SDS011;32907;41.412;2.164;2024-01-25T07:57:36;12.23;;;9.55;;
47153;SDS011;32907;41.412;2.164;2024-01-25T08:00:05;12.38;;;9.88;;
47153;SDS011;32907;41.412;2.164;2024-01-25T08:02:37;13.48;;;9.77;;
47153;SDS011;32907;41.412;2.164;2024-01-25T08:05:08;12.73;;;9.30;;
47153;SDS011;32907;41.412;2.164;2024-01-25T08:07:36;16.15;;;10.65;;
47153;SDS011;32907;41.412;2.164;2024-01-25T08:10:05;11.95;;;10.15;;
47153;SDS011;32907;41.412;2.164;2024-01-25T08:12:34;16.05;;;11.20;;
47153;SDS011;32907;41.412;2.164;2024-01-25T08:15:02;11.82;;;10.45;;
47153;SDS011;32907;41.412;2.164;2024-01-25T08:17:30;15.57;;;10.98;;
47153;SDS011;32907;41.412;2.164;2024-01-25T08:19:58;13.70;;;10.23;;
47153;SDS011;32907;41.412;2.164;2024-01-25T08:22:27;13.15;;;10.30;;
47153;SDS011;32907;41.412;2.164;2024-01-25T08:24:56;14.75;;;10.85;;
47153;SDS011;32907;41.412;2.164;2024-01-25T08:27:24;14.73;;;10.20;;
47153;SDS011;32907;41.412;2.164;2024-01-25T08:29:52;15.48;;;10.07;;
47153;SDS011;32907;41.412;2.164;2024-01-25T08:32:21;14.75;;;10.75;;
47153;SDS011;32907;41.412;2.164;2024-01-25T08:34:49;14.63;;;10.57;;
47153;SDS011;32907;41.412;2.164;2024-01-25T08:37:17;14.75;;;10.15;;
47153;SDS011;32907;41.412;2.164;2024-01-25T08:39:46;12.95;;;9.40;;
47153;SDS011;32907;41.412;2.164;2024-01-25T08:42:18;12.18;;;9.93;;
47153;SDS011;32907;41.412;2.164;2024-01-25T08:44:46;13.25;;;10.25;;
47153;SDS011;32907;41.412;2.164;2024-01-25T08:47:17;13.57;;;10.30;;
47153;SDS011;32907;41.412;2.164;2024-01-25T08:49:46;16.17;;;11.50;;
47153;SDS011;32907;41.412;2.164;2024-01-25T08:52:14;12.63;;;10.60;;
47153;SDS011;32907;41.412;2.164;2024-01-25T08:54:43;12.93;;;10.90;;
47153;SDS011;32907;41.412;2.164;2024-01-25T08:57:11;12.98;;;11.02;;
47153;SDS011;32907;41.412;2.164;2024-01-25T08:59:39;14.65;;;10.70;;
47153;SDS011;32907;41.412;2.164;2024-01-25T09:02:07;13.05;;;10.68;;
47153;SDS011;32907;41.412;2.164;2024-01-25T09:04:36;13.90;;;11.75;;
47153;SDS011;32907;41.412;2.164;2024-01-25T09:07:05;14.27;;;11.32;;
47153;SDS011;32907;41.412;2.164;2024-01-25T09:09:33;15.73;;;10.82;;
47153;SDS011;32907;41.412;2.164;2024-01-25T09:12:04;14.98;;;11.43;;
47153;SDS011;32907;41.412;2.164;2024-01-25T09:14:32;13.98;;;10.82;;
47153;SDS011;32907;41.412;2.164;2024-01-25T09:17:01;13.77;;;11.40;;
47153;SDS011;32907;41.412;2.164;2024-01-25T09:19:29;13.70;;;11.38;;
47153;SDS011;32907;41.412;2.164;2024-01-25T09:21:57;17.45;;;12.10;;
47153;SDS011;32907;41.412;2.164;2024-01-25T09:24:29;17.08;;;11.90;;
47153;SDS011;32907;41.412;2.164;2024-01-25T09:27:04;14.80;;;12.07;;
47153;SDS011;32907;41.412;2.164;2024-01-25T09:29:32;14.98;;;11.82;;
47153;SDS011;32907;41.412;2.164;2024-01-25T09:32:01;15.80;;;11.63;;
47153;SDS011;32907;41.412;2.164;2024-01-25T09:34:30;14.98;;;11.68;;
47153;SDS011;32907;41.412;2.164;2024-01-25T09:36:59;19.23;;;12.07;;
47153;SDS011;32907;41.412;2.164;2024-01-25T09:39:28;17.00;;;11.93;;
47153;SDS011;32907;41.412;2.164;2024-01-25T09:41:56;14.18;;;11.90;;
47153;SDS011;32907;41.412;2.164;2024-01-25T09:44:25;16.52;;;11.45;;
47153;SDS011;32907;41.412;2.164;2024-01-25T09:46:53;14.75;;;11.10;;
47153;SDS011;32907;41.412;2.164;2024-01-25T09:49:23;16.58;;;12.00;;
47153;SDS011;32907;41.412;2.164;2024-01-25T09:51:52;15.70;;;11.35;;
47153;SDS011;32907;41.412;2.164;2024-01-25T09:54:23;15.20;;;11.10;;
47153;SDS011;32907;41.412;2.164;2024-01-25T09:56:52;13.95;;;11.30;;
47153;SDS011;32907;41.412;2.164;2024-01-25T09:59:21;13.13;;;11.40;;
47153;SDS011;32907;41.412;2.164;2024-01-25T10:01:50;15.35;;;12.15;;
47153;SDS011;32907;41.412;2.164;2024-01-25T10:04:18;14.88;;;10.88;;
47153;SDS011;32907;41.412;2.164;2024-01-25T10:06:49;15.32;;;12.65;;
47153;SDS011;32907;41.412;2.164;2024-01-25T10:09:18;14.60;;;12.30;;
47153;SDS011;32907;41.412;2.164;2024-01-25T10:11:46;14.25;;;12.07;;
47153;SDS011;32907;41.412;2.164;2024-01-25T10:14:30;15.50;;;12.45;;
47153;SDS011;32907;41.412;2.164;2024-01-25T10:16:58;17.00;;;13.50;;
47153;SDS011;32907;41.412;2.164;2024-01-25T10:19:29;16.73;;;12.55;;
47153;SDS011;32907;41.412;2.164;2024-01-25T10:21:57;17.60;;;13.63;;
47153;SDS011;32907;41.412;2.164;2024-01-25T10:24:26;18.17;;;13.63;;
47153;SDS011;32907;41.412;2.164;2024-01-25T10:26:55;20.10;;;14.30;;
47153;SDS011;32907;41.412;2.164;2024-01-25T10:29:25;16.40;;;13.77;;
47153;SDS011;32907;41.412;2.164;2024-01-25T10:31:54;16.77;;;12.52;;
47153;SDS011;32907;41.412;2.164;2024-01-25T10:34:22;17.00;;;14.32;;
47153;SDS011;32907;41.412;2.164;2024-01-25T10:36:53;14.88;;;13.25;;
47153;SDS011;32907;41.412;2.164;2024-01-25T10:39:21;16.67;;;13.98;;
47153;SDS011;32907;41.412;2.164;2024-01-25T10:41:50;24.92;;;15.32;;
47153;SDS011;32907;41.412;2.164;2024-01-25T10:44:19;19.23;;;16.67;;
47153;SDS011;32907;41.412;2.164;2024-01-25T10:46:48;19.17;;;15.95;;
47153;SDS011;32907;41.412;2.164;2024-01-25T10:49:17;19.85;;;15.90;;
47153;SDS011;32907;41.412;2.164;2024-01-25T10:51:46;19.15;;;14.98;;
47153;SDS011;32907;41.412;2.164;2024-01-25T10:54:17;22.23;;;15.48;;
47153;SDS011;32907;41.412;2.164;2024-01-25T10:56:46;19.42;;;14.98;;
47153;SDS011;32907;41.412;2.164;2024-01-25T10:59:18;23.88;;;14.48;;
47153;SDS011;32907;41.412;2.164;2024-01-25T11:01:46;14.80;;;12.35;;
47153;SDS011;32907;41.412;2.164;2024-01-25T11:04:17;18.13;;;12.88;;
47153;SDS011;32907;41.412;2.164;2024-01-25T11:06:47;16.95;;;13.05;;
47153;SDS011;32907;41.412;2.164;2024-01-25T11:09:20;21.35;;;13.35;;
47153;SDS011;32907;41.412;2.164;2024-01-25T11:11:49;18.67;;;14.02;;
47153;SDS011;32907;41.412;2.164;2024-01-25T11:14:22;21.00;;;14.60;;
47153;SDS011;32907;41.412;2.164;2024-01-25T11:16:53;22.10;;;15.13;;
47153;SDS011;32907;41.412;2.164;2024-01-25T11:19:22;20.15;;;15.70;;
47153;SDS011;32907;41.412;2.164;2024-01-25T11:21:51;20.90;;;14.32;;
47153;SDS011;32907;41.412;2.164;2024-01-25T11:24:21;17.95;;;13.13;;
47153;SDS011;32907;41.412;2.164;2024-01-25T11:26:51;17.38;;;13.77;;
47153;SDS011;32907;41.412;2.164;2024-01-25T11:29:20;21.38;;;13.95;;
47153;SDS011;32907;41.412;2.164;2024-01-25T11:31:50;18.92;;;13.15;;
47153;SDS011;32907;41.412;2.164;2024-01-25T11:34:19;17.92;;;12.25;;
47153;SDS011;32907;41.412;2.164;2024-01-25T11:36:49;15.43;;;11.85;;
47153;SDS011;32907;41.412;2.164;2024-01-25T11:39:17;21.33;;;13.27;;
47153;SDS011;32907;41.412;2.164;2024-01-25T11:41:46;19.52;;;13.98;;
47153;SDS011;32907;41.412;2.164;2024-01-25T11:44:15;19.67;;;14.93;;
47153;SDS011;32907;41.412;2.164;2024-01-25T11:46:43;16.42;;;14.10;;
47153;SDS011;32907;41.412;2.164;2024-01-25T11:49:12;19.35;;;12.88;;
47153;SDS011;32907;41.412;2.164;2024-01-25T11:51:40;16.77;;;13.73;;
47153;SDS011;32907;41.412;2.164;2024-01-25T11:54:10;16.17;;;13.32;;
47153;SDS011;32907;41.412;2.164;2024-01-25T11:56:38;15.20;;;12.75;;
47153;SDS011;32907;41.412;2.164;2024-01-25T11:59:09;16.13;;;12.90;;
47153;SDS011;32907;41.412;2.164;2024-01-25T12:01:39;16.77;;;13.80;;
47153;SDS011;32907;41.412;2.164;2024-01-25T12:04:09;16.38;;;13.23;;
47153;SDS011;32907;41.412;2.164;2024-01-25T12:06:37;13.95;;;12.07;;
47153;SDS011;32907;41.412;2.164;2024-01-25T12:09:09;13.93;;;12.43;;
47153;SDS011;32907;41.412;2.164;2024-01-25T12:11:41;16.67;;;13.93;;
47153;SDS011;32907;41.412;2.164;2024-01-25T12:14:10;15.27;;;12.60;;
47153;SDS011;32907;41.412;2.164;2024-01-25T12:16:38;14.88;;;12.43;;
47153;SDS011;32907;41.412;2.164;2024-01-25T12:19:08;14.98;;;12.45;;
47153;SDS011;32907;41.412;2.164;2024-01-25T12:21:36;15.40;;;13.50;;
47153;SDS011;32907;41.412;2.164;2024-01-25T12:24:05;15.35;;;12.40;;
47153;SDS011;32907;41.412;2.164;2024-01-25T12:26:36;16.38;;;13.15;;
47153;SDS011;32907;41.412;2.164;2024-01-25T12:29:05;19.90;;;14.85;;
47153;SDS011;32907;41.412;2.164;2024-01-25T12:31:34;16.25;;;14.27;;
47153;SDS011;32907;41.412;2.164;2024-01-25T12:34:02;18.23;;;15.57;;
47153;SDS011;32907;41.412;2.164;2024-01-25T12:36:31;20.08;;;14.40;;
47153;SDS011;32907;41.412;2.164;2024-01-25T12:39:01;17.70;;;15.00;;
47153;SDS011;32907;41.412;2.164;2024-01-25T12:41:30;17.40;;;14.38;;
47153;SDS011;32907;41.412;2.164;2024-01-25T12:43:59;20.75;;;15.75;;
47153;SDS011;32907;41.412;2.164;2024-01-25T12:46:27;18.90;;;16.63;;
47153;SDS011;32907;41.412;2.164;2024-01-25T12:48:57;17.27;;;15.38;;
47153;SDS011;32907;41.412;2.164;2024-01-25T12:51:26;18.98;;;16.48;;
47153;SDS011;32907;41.412;2.164;2024-01-25T12:53:55;19.17;;;16.65;;
47153;SDS011;32907;41.412;2.164;2024-01-25T12:56:24;20.10;;;16.17;;
47153;SDS011;32907;41.412;2.164;2024-01-25T12:58:52;20.40;;;17.02;;
47153;SDS011;32907;41.412;2.164;2024-01-25T13:01:21;20.02;;;16.88;;
47153;SDS011;32907;41.412;2.164;2024-01-25T13:03:49;18.88;;;16.40;;
47153;SDS011;32907;41.412;2.164;2024-01-25T13:06:18;19.13;;;17.13;;
47153;SDS011;32907;41.412;2.164;2024-01-25T13:08:47;21.42;;;17.35;;
47153;SDS011;32907;41.412;2.164;2024-01-25T13:11:16;67.50;;;36.22;;
47153;SDS011;32907;41.412;2.164;2024-01-25T13:13:45;94.07;;;51.20;;
47153;SDS011;32907;41.412;2.164;2024-01-25T13:16:13;67.43;;;42.22;;
47153;SDS011;32907;41.412;2.164;2024-01-25T13:18:41;46.03;;;31.67;;
47153;SDS011;32907;41.412;2.164;2024-01-25T13:21:09;33.35;;;24.95;;
47153;SDS011;32907;41.412;2.164;2024-01-25T13:23:38;32.83;;;23.58;;
47153;SDS011;32907;41.412;2.164;2024-01-25T13:26:06;33.83;;;21.98;;
47153;SDS011;32907;41.412;2.164;2024-01-25T13:28:35;34.33;;;22.02;;
47153;SDS011;32907;41.412;2.164;2024-01-25T13:31:03;32.80;;;20.73;;
47153;SDS011;32907;41.412;2.164;2024-01-25T13:33:31;33.60;;;20.85;;
47153;SDS011;32907;41.412;2.164;2024-01-25T13:36:00;36.30;;;21.38;;
47153;SDS011;32907;41.412;2.164;2024-01-25T13:38:28;26.08;;;19.25;;
47153;SDS011;32907;41.412;2.164;2024-01-25T13:40:57;25.05;;;18.55;;
47153;SDS011;32907;41.412;2.164;2024-01-25T13:43:25;23.38;;;18.30;;
47153;SDS011;32907;41.412;2.164;2024-01-25T13:45:54;23.23;;;18.30;;
47153;SDS011;32907;41.412;2.164;2024-01-25T13:48:22;31.02;;;21.70;;
47153;SDS011;32907;41.412;2.164;2024-01-25T13:50:51;46.85;;;27.25;;
47153;SDS011;32907;41.412;2.164;2024-01-25T13:53:20;50.10;;;27.60;;
47153;SDS011;32907;41.412;2.164;2024-01-25T13:55:48;69.13;;;33.90;;
47153;SDS011;32907;41.412;2.164;2024-01-25T13:58:16;90.75;;;44.75;;
47153;SDS011;32907;41.412;2.164;2024-01-25T14:00:44;81.60;;;43.38;;
47153;SDS011;32907;41.412;2.164;2024-01-25T14:03:14;74.78;;;40.03;;
47153;SDS011;32907;41.412;2.164;2024-01-25T14:05:43;69.88;;;39.05;;
47153;SDS011;32907;41.412;2.164;2024-01-25T14:08:13;76.35;;;39.05;;
47153;SDS011;32907;41.412;2.164;2024-01-25T14:10:41;56.22;;;34.72;;
47153;SDS011;32907;41.412;2.164;2024-01-25T14:13:10;49.58;;;30.98;;
47153;SDS011;32907;41.412;2.164;2024-01-25T14:15:38;39.88;;;25.10;;
47153;SDS011;32907;41.412;2.164;2024-01-25T14:18:07;32.60;;;23.00;;
47153;SDS011;32907;41.412;2.164;2024-01-25T14:20:36;33.25;;;22.98;;
47153;SDS011;32907;41.412;2.164;2024-01-25T14:23:05;29.33;;;21.13;;
47153;SDS011;32907;41.412;2.164;2024-01-25T14:25:33;25.10;;;18.38;;
47153;SDS011;32907;41.412;2.164;2024-01-25T14:28:02;24.48;;;18.00;;
47153;SDS011;32907;41.412;2.164;2024-01-25T14:30:31;24.77;;;17.42;;
47153;SDS011;32907;41.412;2.164;2024-01-25T14:33:00;26.02;;;17.63;;
47153;SDS011;32907;41.412;2.164;2024-01-25T14:35:28;29.38;;;19.38;;